sensor_id;sensor_type;location;lat;lon;timestamp;P1;durP1;ratioP1;P2;durP2;ratioP2
7398;SDS011;3740;50.700;7.184;2023-11-19T00:00:39;0.90;;;0.80;;
7398;SDS011;3740;50.700;7.184;2023-11-19T00:03:05;1.20;;;0.70;;
7398;SDS011;3740;50.700;7.184;2023-11-19T00:05:31;1.20;;;0.60;;
7398;SDS011;3740;50.700;7.184;2023-11-19T00:07:56;1.90;;;0.80;;
7398;SDS011;3740;50.700;7.184;2023-11-19T00:10:22;1.40;;;0.90;;
7398;SDS011;3740;50.700;7.184;2023-11-19T00:12:48;1.23;;;0.60;;
7398;SDS011;3740;50.700;7.184;2023-11-19T00:15:15;0.90;;;0.60;;
7398;SDS011;3740;50.700;7.184;2023-11-19T00:17:44;1.07;;;0.60;;
7398;SDS011;3740;50.700;7.184;2023-11-19T00:20:19;0.40;;;0.40;;
7398;SDS011;3740;50.700;7.184;2023-11-19T00:22:47;0.90;;;0.77;;
7398;SDS011;3740;50.700;7.184;2023-11-19T00:25:13;0.77;;;0.70;;
7398;SDS011;3740;50.700;7.184;2023-11-19T00:27:39;0.60;;;0.60;;
7398;SDS011;3740;50.700;7.184;2023-11-19T00:30:05;0.30;;;0.30;;
7398;SDS011;3740;50.700;7.184;2023-11-19T00:32:32;0.80;;;0.60;;
7398;SDS011;3740;50.700;7.184;2023-11-19T00:34:58;0.40;;;0.40;;
7398;SDS011;3740;50.700;7.184;2023-11-19T00:37:23;1.67;;;0.77;;
7398;SDS011;3740;50.700;7.184;2023-11-19T00:39:49;0.80;;;0.40;;
7398;SDS011;3740;50.700;7.184;2023-11-19T00:42:14;0.93;;;0.27;;
7398;SDS011;3740;50.700;7.184;2023-11-19T00:44:40;1.37;;;0.50;;
7398;SDS011;3740;50.700;7.184;2023-11-19T00:47:06;0.40;;;0.40;;
7398;SDS011;3740;50.700;7.184;2023-11-19T00:49:32;0.50;;;0.50;;
7398;SDS011;3740;50.700;7.184;2023-11-19T00:51:58;0.47;;;0.47;;
7398;SDS011;3740;50.700;7.184;2023-11-19T00:54:24;0.97;;;0.60;;
7398;SDS011;3740;50.700;7.184;2023-11-19T00:56:51;0.63;;;0.63;;
7398;SDS011;3740;50.700;7.184;2023-11-19T00:59:17;0.97;;;0.40;;
7398;SDS011;3740;50.700;7.184;2023-11-19T01:01:43;0.73;;;0.73;;
7398;SDS011;3740;50.700;7.184;2023-11-19T01:04:08;1.17;;;0.90;;
7398;SDS011;3740;50.700;7.184;2023-11-19T01:06:34;0.93;;;0.93;;
7398;SDS011;3740;50.700;7.184;2023-11-19T01:09:00;0.90;;;0.90;;
7398;SDS011;3740;50.700;7.184;2023-11-19T01:11:25;1.00;;;1.00;;
7398;SDS011;3740;50.700;7.184;2023-11-19T01:13:51;2.73;;;0.97;;
7398;SDS011;3740;50.700;7.184;2023-11-19T01:16:17;0.73;;;0.73;;
7398;SDS011;3740;50.700;7.184;2023-11-19T01:18:44;0.80;;;0.80;;
7398;SDS011;3740;50.700;7.184;2023-11-19T01:21:11;0.67;;;0.67;;
7398;SDS011;3740;50.700;7.184;2023-11-19T01:23:39;1.37;;;0.80;;
7398;SDS011;3740;50.700;7.184;2023-11-19T01:26:05;1.20;;;1.00;;
7398;SDS011;3740;50.700;7.184;2023-11-19T01:28:31;1.17;;;0.90;;
7398;SDS011;3740;50.700;7.184;2023-11-19T01:30:56;0.80;;;0.80;;
7398;SDS011;3740;50.700;7.184;2023-11-19T01:33:22;2.73;;;1.10;;
7398;SDS011;3740;50.700;7.184;2023-11-19T01:35:47;0.70;;;0.70;;
7398;SDS011;3740;50.700;7.184;2023-11-19T01:38:13;0.77;;;0.67;;
7398;SDS011;3740;50.700;7.184;2023-11-19T01:40:39;0.73;;;0.57;;
7398;SDS011;3740;50.700;7.184;2023-11-19T01:43:06;0.67;;;0.67;;
7398;SDS011;3740;50.700;7.184;2023-11-19T01:45:31;1.13;;;0.60;;
7398;SDS011;3740;50.700;7.184;2023-11-19T01:48:05;1.63;;;0.80;;
7398;SDS011;3740;50.700;7.184;2023-11-19T01:50:31;1.20;;;0.73;;
7398;SDS011;3740;50.700;7.184;2023-11-19T01:52:58;3.07;;;0.80;;
7398;SDS011;3740;50.700;7.184;2023-11-19T01:55:24;1.77;;;0.70;;
7398;SDS011;3740;50.700;7.184;2023-11-19T01:57:50;1.00;;;0.70;;
7398;SDS011;3740;50.700;7.184;2023-11-19T02:00:18;1.53;;;1.07;;
7398;SDS011;3740;50.700;7.184;2023-11-19T02:02:44;1.50;;;0.70;;
7398;SDS011;3740;50.700;7.184;2023-11-19T02:05:11;0.70;;;0.70;;
7398;SDS011;3740;50.700;7.184;2023-11-19T02:07:38;0.93;;;0.70;;
7398;SDS011;3740;50.700;7.184;2023-11-19T02:10:04;0.70;;;0.70;;
7398;SDS011;3740;50.700;7.184;2023-11-19T02:12:30;1.30;;;1.20;;
7398;SDS011;3740;50.700;7.184;2023-11-19T02:15:00;1.07;;;0.60;;
7398;SDS011;3740;50.700;7.184;2023-11-19T02:17:30;1.87;;;0.80;;
7398;SDS011;3740;50.700;7.184;2023-11-19T02:19:57;0.80;;;0.80;;
7398;SDS011;3740;50.700;7.184;2023-11-19T02:22:23;0.67;;;0.60;;
7398;SDS011;3740;50.700;7.184;2023-11-19T02:24:49;0.50;;;0.50;;
7398;SDS011;3740;50.700;7.184;2023-11-19T02:27:23;1.90;;;0.70;;
7398;SDS011;3740;50.700;7.184;2023-11-19T02:29:57;0.60;;;0.43;;
7398;SDS011;3740;50.700;7.184;2023-11-19T02:32:23;1.23;;;0.70;;
7398;SDS011;3740;50.700;7.184;2023-11-19T02:34:52;0.70;;;0.50;;
7398;SDS011;3740;50.700;7.184;2023-11-19T02:37:18;0.50;;;0.40;;
7398;SDS011;3740;50.700;7.184;2023-11-19T02:39:44;1.50;;;0.70;;
7398;SDS011;3740;50.700;7.184;2023-11-19T02:42:10;0.70;;;0.70;;
7398;SDS011;3740;50.700;7.184;2023-11-19T02:44:36;0.53;;;0.53;;
7398;SDS011;3740;50.700;7.184;2023-11-19T02:47:02;0.37;;;0.30;;
7398;SDS011;3740;50.700;7.184;2023-11-19T02:49:28;0.67;;;0.67;;
7398;SDS011;3740;50.700;7.184;2023-11-19T02:51:53;0.43;;;0.30;;
7398;SDS011;3740;50.700;7.184;2023-11-19T02:54:19;0.60;;;0.50;;
7398;SDS011;3740;50.700;7.184;2023-11-19T02:56:46;0.73;;;0.40;;
7398;SDS011;3740;50.700;7.184;2023-11-19T02:59:20;1.13;;;0.50;;
7398;SDS011;3740;50.700;7.184;2023-11-19T03:01:52;0.60;;;0.60;;
7398;SDS011;3740;50.700;7.184;2023-11-19T03:04:18;0.67;;;0.40;;
7398;SDS011;3740;50.700;7.184;2023-11-19T03:06:45;0.50;;;0.50;;
7398;SDS011;3740;50.700;7.184;2023-11-19T03:09:11;0.67;;;0.50;;
7398;SDS011;3740;50.700;7.184;2023-11-19T03:11:37;0.60;;;0.60;;
7398;SDS011;3740;50.700;7.184;2023-11-19T03:14:03;0.97;;;0.57;;
7398;SDS011;3740;50.700;7.184;2023-11-19T03:16:29;1.07;;;0.60;;
7398;SDS011;3740;50.700;7.184;2023-11-19T03:18:55;0.67;;;0.63;;
7398;SDS011;3740;50.700;7.184;2023-11-19T03:21:30;0.57;;;0.43;;
7398;SDS011;3740;50.700;7.184;2023-11-19T03:23:59;1.10;;;0.77;;
7398;SDS011;3740;50.700;7.184;2023-11-19T03:26:26;2.73;;;0.87;;
7398;SDS011;3740;50.700;7.184;2023-11-19T03:28:52;0.60;;;0.60;;
7398;SDS011;3740;50.700;7.184;2023-11-19T03:31:18;0.70;;;0.70;;
7398;SDS011;3740;50.700;7.184;2023-11-19T03:33:44;1.60;;;0.90;;
7398;SDS011;3740;50.700;7.184;2023-11-19T03:36:10;0.80;;;0.57;;
7398;SDS011;3740;50.700;7.184;2023-11-19T03:38:35;2.47;;;0.90;;
7398;SDS011;3740;50.700;7.184;2023-11-19T03:41:02;0.97;;;0.73;;
7398;SDS011;3740;50.700;7.184;2023-11-19T03:43:35;0.73;;;0.70;;
7398;SDS011;3740;50.700;7.184;2023-11-19T03:46:01;2.93;;;0.80;;
7398;SDS011;3740;50.700;7.184;2023-11-19T03:48:27;1.37;;;0.70;;
7398;SDS011;3740;50.700;7.184;2023-11-19T03:50:52;3.00;;;0.90;;
7398;SDS011;3740;50.700;7.184;2023-11-19T03:53:18;2.33;;;1.07;;
7398;SDS011;3740;50.700;7.184;2023-11-19T03:55:44;2.17;;;1.00;;
7398;SDS011;3740;50.700;7.184;2023-11-19T03:58:09;2.43;;;0.83;;
7398;SDS011;3740;50.700;7.184;2023-11-19T04:00:35;2.10;;;1.13;;
7398;SDS011;3740;50.700;7.184;2023-11-19T04:03:00;0.93;;;0.90;;
7398;SDS011;3740;50.700;7.184;2023-11-19T04:05:26;2.20;;;1.17;;
7398;SDS011;3740;50.700;7.184;2023-11-19T04:07:51;2.27;;;1.10;;
7398;SDS011;3740;50.700;7.184;2023-11-19T04:10:17;0.87;;;0.77;;
7398;SDS011;3740;50.700;7.184;2023-11-19T04:12:43;1.90;;;1.23;;
7398;SDS011;3740;50.700;7.184;2023-11-19T04:15:09;2.40;;;1.37;;
7398;SDS011;3740;50.700;7.184;2023-11-19T04:17:35;2.73;;;1.40;;
7398;SDS011;3740;50.700;7.184;2023-11-19T04:20:01;2.87;;;1.50;;
7398;SDS011;3740;50.700;7.184;2023-11-19T04:22:29;3.13;;;1.10;;
7398;SDS011;3740;50.700;7.184;2023-11-19T04:24:54;2.67;;;1.30;;
7398;SDS011;3740;50.700;7.184;2023-11-19T04:27:20;1.90;;;1.23;;
7398;SDS011;3740;50.700;7.184;2023-11-19T04:29:45;2.83;;;1.70;;
7398;SDS011;3740;50.700;7.184;2023-11-19T04:32:12;2.93;;;1.50;;
7398;SDS011;3740;50.700;7.184;2023-11-19T04:34:37;4.67;;;1.80;;
7398;SDS011;3740;50.700;7.184;2023-11-19T04:37:03;4.97;;;2.10;;
7398;SDS011;3740;50.700;7.184;2023-11-19T04:39:29;4.83;;;2.07;;
7398;SDS011;3740;50.700;7.184;2023-11-19T04:41:55;5.03;;;1.97;;
7398;SDS011;3740;50.700;7.184;2023-11-19T04:44:21;2.97;;;1.63;;
7398;SDS011;3740;50.700;7.184;2023-11-19T04:46:47;3.00;;;1.70;;
7398;SDS011;3740;50.700;7.184;2023-11-19T04:49:13;3.47;;;1.40;;
7398;SDS011;3740;50.700;7.184;2023-11-19T04:51:39;2.97;;;1.40;;
7398;SDS011;3740;50.700;7.184;2023-11-19T04:54:06;3.37;;;1.87;;
7398;SDS011;3740;50.700;7.184;2023-11-19T04:56:33;4.00;;;1.87;;
7398;SDS011;3740;50.700;7.184;2023-11-19T04:59:00;6.60;;;2.30;;
7398;SDS011;3740;50.700;7.184;2023-11-19T05:01:26;4.23;;;1.80;;
7398;SDS011;3740;50.700;7.184;2023-11-19T05:03:52;3.90;;;1.80;;
7398;SDS011;3740;50.700;7.184;2023-11-19T05:06:18;3.57;;;1.60;;
7398;SDS011;3740;50.700;7.184;2023-11-19T05:08:44;4.47;;;2.20;;
7398;SDS011;3740;50.700;7.184;2023-11-19T05:11:09;5.00;;;2.00;;
7398;SDS011;3740;50.700;7.184;2023-11-19T05:13:37;5.07;;;2.20;;
7398;SDS011;3740;50.700;7.184;2023-11-19T05:16:03;3.33;;;1.77;;
7398;SDS011;3740;50.700;7.184;2023-11-19T05:18:29;4.37;;;2.13;;
7398;SDS011;3740;50.700;7.184;2023-11-19T05:20:54;3.67;;;2.10;;
7398;SDS011;3740;50.700;7.184;2023-11-19T05:23:20;5.03;;;2.23;;
7398;SDS011;3740;50.700;7.184;2023-11-19T05:25:46;4.43;;;2.07;;
7398;SDS011;3740;50.700;7.184;2023-11-19T05:28:12;4.47;;;2.00;;
7398;SDS011;3740;50.700;7.184;2023-11-19T05:30:39;4.37;;;2.33;;
7398;SDS011;3740;50.700;7.184;2023-11-19T05:33:05;4.40;;;2.40;;
7398;SDS011;3740;50.700;7.184;2023-11-19T05:35:31;7.00;;;2.40;;
7398;SDS011;3740;50.700;7.184;2023-11-19T05:37:57;4.50;;;2.47;;
7398;SDS011;3740;50.700;7.184;2023-11-19T05:40:23;4.63;;;2.63;;
7398;SDS011;3740;50.700;7.184;2023-11-19T05:42:48;4.70;;;2.43;;
7398;SDS011;3740;50.700;7.184;2023-11-19T05:45:14;6.03;;;3.10;;
7398;SDS011;3740;50.700;7.184;2023-11-19T05:47:40;6.53;;;2.70;;
7398;SDS011;3740;50.700;7.184;2023-11-19T05:50:06;6.13;;;2.70;;
7398;SDS011;3740;50.700;7.184;2023-11-19T05:52:32;5.77;;;2.90;;
7398;SDS011;3740;50.700;7.184;2023-11-19T05:55:01;6.10;;;2.73;;
7398;SDS011;3740;50.700;7.184;2023-11-19T05:57:34;6.93;;;2.63;;
7398;SDS011;3740;50.700;7.184;2023-11-19T06:00:00;5.57;;;2.67;;
7398;SDS011;3740;50.700;7.184;2023-11-19T06:02:26;6.27;;;3.00;;
7398;SDS011;3740;50.700;7.184;2023-11-19T06:04:52;6.57;;;3.20;;
7398;SDS011;3740;50.700;7.184;2023-11-19T06:07:18;6.57;;;2.90;;
7398;SDS011;3740;50.700;7.184;2023-11-19T06:09:44;6.13;;;2.83;;
7398;SDS011;3740;50.700;7.184;2023-11-19T06:12:10;7.50;;;3.20;;
7398;SDS011;3740;50.700;7.184;2023-11-19T06:14:35;6.50;;;2.80;;
7398;SDS011;3740;50.700;7.184;2023-11-19T06:17:01;6.10;;;3.10;;
7398;SDS011;3740;50.700;7.184;2023-11-19T06:19:27;7.73;;;3.07;;
7398;SDS011;3740;50.700;7.184;2023-11-19T06:21:53;8.00;;;3.47;;
7398;SDS011;3740;50.700;7.184;2023-11-19T06:24:18;7.10;;;2.90;;
7398;SDS011;3740;50.700;7.184;2023-11-19T06:26:44;6.37;;;3.13;;
7398;SDS011;3740;50.700;7.184;2023-11-19T06:29:10;7.10;;;2.80;;
7398;SDS011;3740;50.700;7.184;2023-11-19T06:31:35;10.93;;;4.00;;
7398;SDS011;3740;50.700;7.184;2023-11-19T06:34:01;10.63;;;4.03;;
7398;SDS011;3740;50.700;7.184;2023-11-19T06:36:27;9.80;;;3.53;;
7398;SDS011;3740;50.700;7.184;2023-11-19T06:38:52;7.80;;;3.37;;
7398;SDS011;3740;50.700;7.184;2023-11-19T06:41:18;6.33;;;2.87;;
7398;SDS011;3740;50.700;7.184;2023-11-19T06:43:44;6.00;;;3.03;;
7398;SDS011;3740;50.700;7.184;2023-11-19T06:46:16;6.23;;;3.17;;
7398;SDS011;3740;50.700;7.184;2023-11-19T06:48:42;7.70;;;3.83;;
7398;SDS011;3740;50.700;7.184;2023-11-19T06:51:09;11.40;;;4.13;;
7398;SDS011;3740;50.700;7.184;2023-11-19T06:53:34;12.27;;;4.70;;
7398;SDS011;3740;50.700;7.184;2023-11-19T06:56:01;11.20;;;4.33;;
7398;SDS011;3740;50.700;7.184;2023-11-19T06:58:30;10.30;;;3.90;;
7398;SDS011;3740;50.700;7.184;2023-11-19T07:00:56;9.77;;;3.60;;
7398;SDS011;3740;50.700;7.184;2023-11-19T07:03:21;9.23;;;3.60;;
7398;SDS011;3740;50.700;7.184;2023-11-19T07:05:47;8.37;;;3.10;;
7398;SDS011;3740;50.700;7.184;2023-11-19T07:08:13;9.07;;;3.77;;
7398;SDS011;3740;50.700;7.184;2023-11-19T07:10:39;7.10;;;3.00;;
7398;SDS011;3740;50.700;7.184;2023-11-19T07:13:05;10.90;;;4.23;;
7398;SDS011;3740;50.700;7.184;2023-11-19T07:15:31;6.87;;;3.40;;
7398;SDS011;3740;50.700;7.184;2023-11-19T07:17:57;8.37;;;4.03;;
7398;SDS011;3740;50.700;7.184;2023-11-19T07:20:24;11.93;;;4.03;;
7398;SDS011;3740;50.700;7.184;2023-11-19T07:22:51;8.83;;;3.90;;
7398;SDS011;3740;50.700;7.184;2023-11-19T07:25:17;11.67;;;4.50;;
7398;SDS011;3740;50.700;7.184;2023-11-19T07:27:43;9.43;;;3.83;;
7398;SDS011;3740;50.700;7.184;2023-11-19T07:30:08;10.93;;;4.37;;
7398;SDS011;3740;50.700;7.184;2023-11-19T07:32:34;9.83;;;4.37;;
7398;SDS011;3740;50.700;7.184;2023-11-19T07:35:00;9.40;;;4.03;;
7398;SDS011;3740;50.700;7.184;2023-11-19T07:37:25;11.53;;;4.37;;
7398;SDS011;3740;50.700;7.184;2023-11-19T07:39:51;10.57;;;4.27;;
7398;SDS011;3740;50.700;7.184;2023-11-19T07:42:16;16.80;;;4.90;;
7398;SDS011;3740;50.700;7.184;2023-11-19T07:44:43;11.43;;;4.67;;
7398;SDS011;3740;50.700;7.184;2023-11-19T07:47:08;14.07;;;4.70;;
7398;SDS011;3740;50.700;7.184;2023-11-19T07:49:35;11.57;;;4.70;;
7398;SDS011;3740;50.700;7.184;2023-11-19T07:52:00;11.23;;;4.17;;
7398;SDS011;3740;50.700;7.184;2023-11-19T07:54:27;11.90;;;4.50;;
7398;SDS011;3740;50.700;7.184;2023-11-19T07:56:53;10.30;;;3.97;;
7398;SDS011;3740;50.700;7.184;2023-11-19T07:59:19;12.20;;;4.37;;
7398;SDS011;3740;50.700;7.184;2023-11-19T08:01:45;11.30;;;4.90;;
7398;SDS011;3740;50.700;7.184;2023-11-19T08:04:10;9.97;;;4.37;;
7398;SDS011;3740;50.700;7.184;2023-11-19T08:06:36;12.27;;;4.83;;
7398;SDS011;3740;50.700;7.184;2023-11-19T08:09:01;12.17;;;4.70;;
7398;SDS011;3740;50.700;7.184;2023-11-19T08:11:27;11.40;;;4.00;;
7398;SDS011;3740;50.700;7.184;2023-11-19T08:13:53;10.43;;;3.93;;
7398;SDS011;3740;50.700;7.184;2023-11-19T08:16:18;14.90;;;4.63;;
7398;SDS011;3740;50.700;7.184;2023-11-19T08:18:44;10.93;;;4.33;;
7398;SDS011;3740;50.700;7.184;2023-11-19T08:21:09;15.07;;;5.03;;
7398;SDS011;3740;50.700;7.184;2023-11-19T08:23:35;11.70;;;4.50;;
7398;SDS011;3740;50.700;7.184;2023-11-19T08:26:01;12.33;;;4.97;;
7398;SDS011;3740;50.700;7.184;2023-11-19T08:28:27;11.53;;;4.87;;
7398;SDS011;3740;50.700;7.184;2023-11-19T08:30:53;11.53;;;4.47;;
7398;SDS011;3740;50.700;7.184;2023-11-19T08:33:18;13.33;;;5.03;;
7398;SDS011;3740;50.700;7.184;2023-11-19T08:35:47;15.30;;;4.97;;
7398;SDS011;3740;50.700;7.184;2023-11-19T08:38:13;9.77;;;4.30;;
7398;SDS011;3740;50.700;7.184;2023-11-19T08:40:38;8.90;;;4.40;;
7398;SDS011;3740;50.700;7.184;2023-11-19T08:43:04;12.53;;;4.90;;
7398;SDS011;3740;50.700;7.184;2023-11-19T08:45:30;13.53;;;5.20;;
7398;SDS011;3740;50.700;7.184;2023-11-19T08:47:57;13.20;;;5.03;;
7398;SDS011;3740;50.700;7.184;2023-11-19T08:50:22;12.80;;;5.20;;
7398;SDS011;3740;50.700;7.184;2023-11-19T08:52:48;14.80;;;5.30;;
7398;SDS011;3740;50.700;7.184;2023-11-19T08:55:14;15.30;;;5.40;;
7398;SDS011;3740;50.700;7.184;2023-11-19T08:57:39;9.10;;;4.03;;
7398;SDS011;3740;50.700;7.184;2023-11-19T09:00:05;11.83;;;4.73;;
7398;SDS011;3740;50.700;7.184;2023-11-19T09:02:35;13.97;;;5.07;;
7398;SDS011;3740;50.700;7.184;2023-11-19T09:05:02;13.07;;;5.17;;
7398;SDS011;3740;50.700;7.184;2023-11-19T09:07:28;13.87;;;5.80;;
7398;SDS011;3740;50.700;7.184;2023-11-19T09:09:53;12.33;;;5.80;;
7398;SDS011;3740;50.700;7.184;2023-11-19T09:12:19;13.17;;;5.20;;
7398;SDS011;3740;50.700;7.184;2023-11-19T09:14:44;12.97;;;5.00;;
7398;SDS011;3740;50.700;7.184;2023-11-19T09:17:10;16.47;;;5.43;;
7398;SDS011;3740;50.700;7.184;2023-11-19T09:19:36;12.87;;;5.43;;
7398;SDS011;3740;50.700;7.184;2023-11-19T09:22:02;16.50;;;5.50;;
7398;SDS011;3740;50.700;7.184;2023-11-19T09:24:27;10.73;;;4.87;;
7398;SDS011;3740;50.700;7.184;2023-11-19T09:26:53;17.57;;;5.90;;
7398;SDS011;3740;50.700;7.184;2023-11-19T09:29:19;13.27;;;5.43;;
7398;SDS011;3740;50.700;7.184;2023-11-19T09:31:46;16.40;;;5.30;;
7398;SDS011;3740;50.700;7.184;2023-11-19T09:34:12;18.07;;;5.40;;
7398;SDS011;3740;50.700;7.184;2023-11-19T09:36:37;15.00;;;5.77;;
7398;SDS011;3740;50.700;7.184;2023-11-19T09:39:03;12.43;;;5.10;;
7398;SDS011;3740;50.700;7.184;2023-11-19T09:41:30;12.43;;;5.43;;
7398;SDS011;3740;50.700;7.184;2023-11-19T09:43:56;12.73;;;4.97;;
7398;SDS011;3740;50.700;7.184;2023-11-19T09:46:21;11.95;;;5.18;;
7398;SDS011;3740;50.700;7.184;2023-11-19T09:48:49;9.10;;;4.35;;
7398;SDS011;3740;50.700;7.184;2023-11-19T09:51:19;10.30;;;4.72;;
7398;SDS011;3740;50.700;7.184;2023-11-19T09:53:45;12.43;;;4.60;;
7398;SDS011;3740;50.700;7.184;2023-11-19T09:56:11;11.05;;;4.53;;
7398;SDS011;3740;50.700;7.184;2023-11-19T09:58:37;13.43;;;4.60;;
7398;SDS011;3740;50.700;7.184;2023-11-19T10:01:03;11.30;;;4.68;;
7398;SDS011;3740;50.700;7.184;2023-11-19T10:03:32;9.05;;;4.05;;
7398;SDS011;3740;50.700;7.184;2023-11-19T10:06:00;9.00;;;4.53;;
7398;SDS011;3740;50.700;7.184;2023-11-19T10:08:26;11.23;;;4.70;;
7398;SDS011;3740;50.700;7.184;2023-11-19T10:10:52;9.10;;;4.55;;
7398;SDS011;3740;50.700;7.184;2023-11-19T10:13:17;8.38;;;4.20;;
7398;SDS011;3740;50.700;7.184;2023-11-19T10:15:43;10.10;;;4.80;;
7398;SDS011;3740;50.700;7.184;2023-11-19T10:18:09;8.02;;;4.28;;
7398;SDS011;3740;50.700;7.184;2023-11-19T10:20:38;10.82;;;4.55;;
7398;SDS011;3740;50.700;7.184;2023-11-19T10:23:06;10.93;;;4.65;;
7398;SDS011;3740;50.700;7.184;2023-11-19T10:25:32;10.38;;;4.22;;
7398;SDS011;3740;50.700;7.184;2023-11-19T10:27:59;9.57;;;4.50;;
7398;SDS011;3740;50.700;7.184;2023-11-19T10:30:28;11.85;;;5.03;;
7398;SDS011;3740;50.700;7.184;2023-11-19T10:33:02;9.05;;;4.50;;
7398;SDS011;3740;50.700;7.184;2023-11-19T10:35:31;9.98;;;4.70;;
7398;SDS011;3740;50.700;7.184;2023-11-19T10:38:02;13.73;;;4.97;;
7398;SDS011;3740;50.700;7.184;2023-11-19T10:40:40;14.25;;;5.38;;
7398;SDS011;3740;50.700;7.184;2023-11-19T10:43:06;11.63;;;4.95;;
7398;SDS011;3740;50.700;7.184;2023-11-19T10:45:32;13.32;;;5.35;;
7398;SDS011;3740;50.700;7.184;2023-11-19T10:47:59;12.02;;;4.90;;
7398;SDS011;3740;50.700;7.184;2023-11-19T10:50:25;15.27;;;5.85;;
7398;SDS011;3740;50.700;7.184;2023-11-19T10:52:55;15.07;;;5.22;;
7398;SDS011;3740;50.700;7.184;2023-11-19T10:55:25;13.05;;;5.40;;
7398;SDS011;3740;50.700;7.184;2023-11-19T10:57:53;16.10;;;6.13;;
7398;SDS011;3740;50.700;7.184;2023-11-19T11:00:29;23.70;;;16.88;;
7398;SDS011;3740;50.700;7.184;2023-11-19T11:03:01;13.07;;;5.22;;
7398;SDS011;3740;50.700;7.184;2023-11-19T11:05:32;17.20;;;6.10;;
7398;SDS011;3740;50.700;7.184;2023-11-19T11:08:00;14.60;;;6.43;;
7398;SDS011;3740;50.700;7.184;2023-11-19T11:10:26;14.75;;;5.45;;
7398;SDS011;3740;50.700;7.184;2023-11-19T11:12:53;14.35;;;5.50;;
7398;SDS011;3740;50.700;7.184;2023-11-19T11:15:27;11.57;;;5.65;;
7398;SDS011;3740;50.700;7.184;2023-11-19T11:17:55;12.00;;;4.75;;
7398;SDS011;3740;50.700;7.184;2023-11-19T11:20:25;18.02;;;6.53;;
7398;SDS011;3740;50.700;7.184;2023-11-19T11:22:57;14.55;;;5.45;;
7398;SDS011;3740;50.700;7.184;2023-11-19T11:29:00;12.10;;;4.80;;
7398;SDS011;3740;50.700;7.184;2023-11-19T11:34:38;19.30;;;11.13;;
7398;SDS011;3740;50.700;7.184;2023-11-19T11:37:36;15.83;;;7.47;;
7398;SDS011;3740;50.700;7.184;2023-11-19T11:40:08;12.07;;;5.40;;
7398;SDS011;3740;50.700;7.184;2023-11-19T11:42:41;15.77;;;8.00;;
7398;SDS011;3740;50.700;7.184;2023-11-19T11:55:24;11.40;;;5.23;;
7398;SDS011;3740;50.700;7.184;2023-11-19T11:57:53;12.93;;;5.20;;
7398;SDS011;3740;50.700;7.184;2023-11-19T12:00:23;15.10;;;5.50;;
7398;SDS011;3740;50.700;7.184;2023-11-19T12:02:54;13.33;;;5.30;;
7398;SDS011;3740;50.700;7.184;2023-11-19T12:05:26;12.93;;;5.43;;
7398;SDS011;3740;50.700;7.184;2023-11-19T12:07:56;15.67;;;6.13;;
7398;SDS011;3740;50.700;7.184;2023-11-19T12:10:25;13.60;;;5.90;;
7398;SDS011;3740;50.700;7.184;2023-11-19T12:12:57;13.43;;;5.20;;
7398;SDS011;3740;50.700;7.184;2023-11-19T12:15:23;13.63;;;5.33;;
7398;SDS011;3740;50.700;7.184;2023-11-19T12:17:51;9.53;;;4.40;;
7398;SDS011;3740;50.700;7.184;2023-11-19T12:20:17;9.67;;;4.10;;
7398;SDS011;3740;50.700;7.184;2023-11-19T12:22:45;10.37;;;4.40;;
7398;SDS011;3740;50.700;7.184;2023-11-19T12:25:12;12.87;;;4.77;;
7398;SDS011;3740;50.700;7.184;2023-11-19T12:27:45;10.33;;;3.97;;
7398;SDS011;3740;50.700;7.184;2023-11-19T12:30:12;10.87;;;4.67;;
7398;SDS011;3740;50.700;7.184;2023-11-19T12:32:51;9.57;;;4.43;;
7398;SDS011;3740;50.700;7.184;2023-11-19T12:35:21;15.30;;;5.00;;
7398;SDS011;3740;50.700;7.184;2023-11-19T12:37:48;12.73;;;4.90;;
7398;SDS011;3740;50.700;7.184;2023-11-19T12:40:15;15.00;;;6.80;;
7398;SDS011;3740;50.700;7.184;2023-11-19T12:42:45;11.10;;;5.50;;
7398;SDS011;3740;50.700;7.184;2023-11-19T12:45:12;14.33;;;5.47;;
7398;SDS011;3740;50.700;7.184;2023-11-19T12:47:38;10.20;;;4.10;;
7398;SDS011;3740;50.700;7.184;2023-11-19T12:50:08;11.00;;;4.57;;
7398;SDS011;3740;50.700;7.184;2023-11-19T12:52:35;11.73;;;4.77;;
7398;SDS011;3740;50.700;7.184;2023-11-19T12:55:02;11.83;;;4.73;;
7398;SDS011;3740;50.700;7.184;2023-11-19T12:57:38;11.27;;;6.00;;
7398;SDS011;3740;50.700;7.184;2023-11-19T13:00:07;13.33;;;4.50;;
7398;SDS011;3740;50.700;7.184;2023-11-19T13:02:49;12.27;;;4.30;;
7398;SDS011;3740;50.700;7.184;2023-11-19T13:05:20;9.40;;;4.53;;
7398;SDS011;3740;50.700;7.184;2023-11-19T13:08:02;12.03;;;4.10;;
7398;SDS011;3740;50.700;7.184;2023-11-19T13:10:30;11.57;;;4.70;;
7398;SDS011;3740;50.700;7.184;2023-11-19T13:13:08;10.33;;;4.83;;
7398;SDS011;3740;50.700;7.184;2023-11-19T13:15:34;11.07;;;4.50;;
7398;SDS011;3740;50.700;7.184;2023-11-19T13:18:00;11.93;;;4.53;;
7398;SDS011;3740;50.700;7.184;2023-11-19T13:20:27;14.27;;;5.30;;
7398;SDS011;3740;50.700;7.184;2023-11-19T13:22:54;14.80;;;5.13;;
7398;SDS011;3740;50.700;7.184;2023-11-19T13:25:20;12.77;;;4.73;;
7398;SDS011;3740;50.700;7.184;2023-11-19T13:27:46;14.40;;;5.50;;
7398;SDS011;3740;50.700;7.184;2023-11-19T13:30:11;8.68;;;4.25;;
7398;SDS011;3740;50.700;7.184;2023-11-19T13:32:37;10.30;;;4.90;;
7398;SDS011;3740;50.700;7.184;2023-11-19T13:35:04;12.77;;;4.97;;
7398;SDS011;3740;50.700;7.184;2023-11-19T13:37:30;13.23;;;4.93;;
7398;SDS011;3740;50.700;7.184;2023-11-19T13:39:55;10.50;;;4.20;;
7398;SDS011;3740;50.700;7.184;2023-11-19T13:42:21;11.73;;;4.80;;
7398;SDS011;3740;50.700;7.184;2023-11-19T13:44:46;10.90;;;4.27;;
7398;SDS011;3740;50.700;7.184;2023-11-19T13:47:12;9.47;;;4.10;;
7398;SDS011;3740;50.700;7.184;2023-11-19T13:49:38;10.13;;;4.67;;
7398;SDS011;3740;50.700;7.184;2023-11-19T13:52:04;13.03;;;4.67;;
7398;SDS011;3740;50.700;7.184;2023-11-19T13:54:30;11.17;;;5.00;;
7398;SDS011;3740;50.700;7.184;2023-11-19T13:56:56;12.33;;;4.90;;
7398;SDS011;3740;50.700;7.184;2023-11-19T13:59:25;12.97;;;5.13;;
7398;SDS011;3740;50.700;7.184;2023-11-19T14:01:52;12.40;;;4.80;;
7398;SDS011;3740;50.700;7.184;2023-11-19T14:04:17;12.13;;;4.40;;
7398;SDS011;3740;50.700;7.184;2023-11-19T14:06:44;10.60;;;4.53;;
7398;SDS011;3740;50.700;7.184;2023-11-19T14:09:10;14.80;;;5.70;;
7398;SDS011;3740;50.700;7.184;2023-11-19T14:11:36;13.80;;;5.00;;
7398;SDS011;3740;50.700;7.184;2023-11-19T14:14:01;10.97;;;4.97;;
7398;SDS011;3740;50.700;7.184;2023-11-19T14:16:27;10.17;;;4.60;;
7398;SDS011;3740;50.700;7.184;2023-11-19T14:18:53;9.83;;;4.53;;
7398;SDS011;3740;50.700;7.184;2023-11-19T14:21:19;12.20;;;4.37;;
7398;SDS011;3740;50.700;7.184;2023-11-19T14:23:45;12.20;;;4.60;;
7398;SDS011;3740;50.700;7.184;2023-11-19T14:26:11;10.40;;;4.87;;
7398;SDS011;3740;50.700;7.184;2023-11-19T14:28:37;14.70;;;4.53;;
7398;SDS011;3740;50.700;7.184;2023-11-19T14:31:03;10.23;;;4.33;;
7398;SDS011;3740;50.700;7.184;2023-11-19T14:33:29;11.03;;;4.40;;
7398;SDS011;3740;50.700;7.184;2023-11-19T14:35:55;10.13;;;4.33;;
7398;SDS011;3740;50.700;7.184;2023-11-19T14:38:20;10.67;;;4.67;;
7398;SDS011;3740;50.700;7.184;2023-11-19T14:40:46;15.13;;;5.10;;
7398;SDS011;3740;50.700;7.184;2023-11-19T14:43:12;10.10;;;3.77;;
7398;SDS011;3740;50.700;7.184;2023-11-19T14:45:40;13.43;;;4.53;;
7398;SDS011;3740;50.700;7.184;2023-11-19T14:48:06;11.67;;;4.57;;
7398;SDS011;3740;50.700;7.184;2023-11-19T14:50:31;10.57;;;4.40;;
7398;SDS011;3740;50.700;7.184;2023-11-19T14:52:57;9.97;;;4.30;;
7398;SDS011;3740;50.700;7.184;2023-11-19T14:55:23;10.40;;;4.30;;
7398;SDS011;3740;50.700;7.184;2023-11-19T14:57:49;10.40;;;4.07;;
7398;SDS011;3740;50.700;7.184;2023-11-19T15:00:15;9.27;;;4.07;;
7398;SDS011;3740;50.700;7.184;2023-11-19T15:02:41;11.63;;;4.23;;
7398;SDS011;3740;50.700;7.184;2023-11-19T15:05:07;10.70;;;4.47;;
7398;SDS011;3740;50.700;7.184;2023-11-19T15:07:37;11.17;;;3.90;;
7398;SDS011;3740;50.700;7.184;2023-11-19T15:10:03;10.03;;;3.73;;
7398;SDS011;3740;50.700;7.184;2023-11-19T15:12:34;8.30;;;4.00;;
7398;SDS011;3740;50.700;7.184;2023-11-19T15:15:04;10.00;;;3.93;;
7398;SDS011;3740;50.700;7.184;2023-11-19T15:17:34;8.10;;;3.50;;
7398;SDS011;3740;50.700;7.184;2023-11-19T15:20:01;9.03;;;3.77;;
7398;SDS011;3740;50.700;7.184;2023-11-19T15:22:27;8.93;;;4.20;;
7398;SDS011;3740;50.700;7.184;2023-11-19T15:24:53;8.20;;;3.73;;